sensor_id;sensor_type;location;lat;lon;timestamp;P1;durP1;ratioP1;P2;durP2;ratioP2
45618;SDS011;31343;47.520;19.144;2022-12-18T00:00:46;39.47;;;17.55;;
45618;SDS011;31343;47.520;19.144;2022-12-18T00:03:12;40.83;;;15.80;;
45618;SDS011;31343;47.520;19.144;2022-12-18T00:05:46;42.47;;;18.25;;
45618;SDS011;31343;47.520;19.144;2022-12-18T00:08:12;40.92;;;17.05;;
45618;SDS011;31343;47.520;19.144;2022-12-18T00:10:38;41.35;;;17.63;;
45618;SDS011;31343;47.520;19.144;2022-12-18T00:13:04;40.88;;;16.83;;
45618;SDS011;31343;47.520;19.144;2022-12-18T00:15:30;37.33;;;16.00;;
45618;SDS011;31343;47.520;19.144;2022-12-18T00:17:58;38.78;;;17.15;;
45618;SDS011;31343;47.520;19.144;2022-12-18T00:20:23;35.33;;;17.55;;
45618;SDS011;31343;47.520;19.144;2022-12-18T00:22:51;42.97;;;16.90;;
45618;SDS011;31343;47.520;19.144;2022-12-18T00:25:17;28.90;;;14.95;;
45618;SDS011;31343;47.520;19.144;2022-12-18T00:27:43;38.45;;;16.42;;
45618;SDS011;31343;47.520;19.144;2022-12-18T00:30:09;33.13;;;16.33;;
45618;SDS011;31343;47.520;19.144;2022-12-18T00:32:35;33.45;;;16.83;;
45618;SDS011;31343;47.520;19.144;2022-12-18T00:35:01;41.05;;;18.10;;
45618;SDS011;31343;47.520;19.144;2022-12-18T00:37:27;38.30;;;17.58;;
45618;SDS011;31343;47.520;19.144;2022-12-18T00:39:52;35.95;;;16.55;;
45618;SDS011;31343;47.520;19.144;2022-12-18T00:42:18;38.25;;;17.33;;
45618;SDS011;31343;47.520;19.144;2022-12-18T00:45:02;31.42;;;16.23;;
45618;SDS011;31343;47.520;19.144;2022-12-18T00:47:28;35.10;;;15.68;;
45618;SDS011;31343;47.520;19.144;2022-12-18T00:49:54;36.78;;;15.63;;
45618;SDS011;31343;47.520;19.144;2022-12-18T00:52:20;35.47;;;17.02;;
45618;SDS011;31343;47.520;19.144;2022-12-18T00:54:45;38.03;;;17.15;;
45618;SDS011;31343;47.520;19.144;2022-12-18T00:57:11;42.55;;;17.27;;
45618;SDS011;31343;47.520;19.144;2022-12-18T00:59:37;36.30;;;16.48;;
45618;SDS011;31343;47.520;19.144;2022-12-18T01:02:02;44.03;;;17.55;;
45618;SDS011;31343;47.520;19.144;2022-12-18T01:04:30;34.40;;;15.90;;
45618;SDS011;31343;47.520;19.144;2022-12-18T01:06:57;37.30;;;17.45;;
45618;SDS011;31343;47.520;19.144;2022-12-18T01:09:23;37.65;;;16.52;;
45618;SDS011;31343;47.520;19.144;2022-12-18T01:11:49;35.78;;;17.55;;
45618;SDS011;31343;47.520;19.144;2022-12-18T01:14:14;34.85;;;16.08;;
45618;SDS011;31343;47.520;19.144;2022-12-18T01:16:40;37.35;;;16.33;;
45618;SDS011;31343;47.520;19.144;2022-12-18T01:19:06;40.58;;;17.83;;
45618;SDS011;31343;47.520;19.144;2022-12-18T01:21:32;32.15;;;15.00;;
45618;SDS011;31343;47.520;19.144;2022-12-18T01:23:57;32.88;;;15.02;;
45618;SDS011;31343;47.520;19.144;2022-12-18T01:26:24;50.63;;;16.48;;
45618;SDS011;31343;47.520;19.144;2022-12-18T01:28:50;45.22;;;16.85;;
45618;SDS011;31343;47.520;19.144;2022-12-18T01:31:20;39.28;;;17.55;;
45618;SDS011;31343;47.520;19.144;2022-12-18T01:33:48;42.42;;;17.08;;
45618;SDS011;31343;47.520;19.144;2022-12-18T01:36:17;34.75;;;15.30;;
45618;SDS011;31343;47.520;19.144;2022-12-18T01:38:50;37.85;;;16.88;;
45618;SDS011;31343;47.520;19.144;2022-12-18T01:41:17;38.83;;;16.30;;
45618;SDS011;31343;47.520;19.144;2022-12-18T01:46:22;34.60;;;16.73;;
45618;SDS011;31343;47.520;19.144;2022-12-18T01:48:49;42.63;;;17.42;;
45618;SDS011;31343;47.520;19.144;2022-12-18T01:51:18;43.25;;;17.52;;
45618;SDS011;31343;47.520;19.144;2022-12-18T01:53:44;37.15;;;16.77;;
45618;SDS011;31343;47.520;19.144;2022-12-18T01:56:13;40.63;;;18.00;;
45618;SDS011;31343;47.520;19.144;2022-12-18T02:01:06;33.28;;;16.10;;
45618;SDS011;31343;47.520;19.144;2022-12-18T02:03:32;33.38;;;16.13;;
45618;SDS011;31343;47.520;19.144;2022-12-18T02:06:41;35.28;;;16.13;;
45618;SDS011;31343;47.520;19.144;2022-12-18T02:11:48;41.47;;;17.77;;
45618;SDS011;31343;47.520;19.144;2022-12-18T02:19:51;36.53;;;17.92;;
45618;SDS011;31343;47.520;19.144;2022-12-18T02:23:04;35.80;;;15.98;;
45618;SDS011;31343;47.520;19.144;2022-12-18T02:28:55;38.65;;;17.05;;
45618;SDS011;31343;47.520;19.144;2022-12-18T02:31:27;32.65;;;15.82;;
45618;SDS011;31343;47.520;19.144;2022-12-18T02:33:56;36.72;;;16.75;;
45618;SDS011;31343;47.520;19.144;2022-12-18T02:36:26;41.15;;;17.45;;
45618;SDS011;31343;47.520;19.144;2022-12-18T02:38:54;35.50;;;16.10;;
45618;SDS011;31343;47.520;19.144;2022-12-18T02:41:21;33.13;;;16.83;;
45618;SDS011;31343;47.520;19.144;2022-12-18T02:43:48;41.40;;;16.52;;
45618;SDS011;31343;47.520;19.144;2022-12-18T02:46:28;42.67;;;17.38;;
45618;SDS011;31343;47.520;19.144;2022-12-18T02:49:06;37.30;;;18.17;;
45618;SDS011;31343;47.520;19.144;2022-12-18T03:00:06;37.63;;;18.00;;
45618;SDS011;31343;47.520;19.144;2022-12-18T03:05:22;40.63;;;18.63;;
45618;SDS011;31343;47.520;19.144;2022-12-18T03:07:55;40.58;;;15.38;;
45618;SDS011;31343;47.520;19.144;2022-12-18T03:10:27;40.33;;;17.95;;
45618;SDS011;31343;47.520;19.144;2022-12-18T03:13:08;32.38;;;15.57;;
45618;SDS011;31343;47.520;19.144;2022-12-18T03:15:39;31.13;;;16.67;;
45618;SDS011;31343;47.520;19.144;2022-12-18T03:18:16;42.22;;;17.35;;
45618;SDS011;31343;47.520;19.144;2022-12-18T03:20:51;34.92;;;17.23;;
45618;SDS011;31343;47.520;19.144;2022-12-18T03:23:20;33.78;;;16.83;;
45618;SDS011;31343;47.520;19.144;2022-12-18T03:25:50;39.85;;;15.55;;
45618;SDS011;31343;47.520;19.144;2022-12-18T03:28:22;44.20;;;18.20;;
45618;SDS011;31343;47.520;19.144;2022-12-18T03:30:49;40.92;;;16.77;;
45618;SDS011;31343;47.520;19.144;2022-12-18T03:33:23;36.38;;;15.82;;
45618;SDS011;31343;47.520;19.144;2022-12-18T03:35:53;40.05;;;18.85;;
45618;SDS011;31343;47.520;19.144;2022-12-18T03:38:19;38.30;;;16.25;;
45618;SDS011;31343;47.520;19.144;2022-12-18T03:43:33;35.77;;;16.27;;
45618;SDS011;31343;47.520;19.144;2022-12-18T03:46:05;41.88;;;18.10;;
45618;SDS011;31343;47.520;19.144;2022-12-18T03:48:51;41.78;;;18.58;;
45618;SDS011;31343;47.520;19.144;2022-12-18T03:51:42;41.72;;;18.27;;
45618;SDS011;31343;47.520;19.144;2022-12-18T03:54:15;35.53;;;16.85;;
45618;SDS011;31343;47.520;19.144;2022-12-18T03:56:44;37.15;;;17.42;;
45618;SDS011;31343;47.520;19.144;2022-12-18T03:59:13;44.10;;;17.00;;
45618;SDS011;31343;47.520;19.144;2022-12-18T04:01:42;40.30;;;17.65;;
45618;SDS011;31343;47.520;19.144;2022-12-18T04:04:12;39.97;;;18.60;;
45618;SDS011;31343;47.520;19.144;2022-12-18T04:06:42;38.75;;;17.20;;
45618;SDS011;31343;47.520;19.144;2022-12-18T04:09:10;40.33;;;18.10;;
45618;SDS011;31343;47.520;19.144;2022-12-18T04:11:36;46.38;;;19.38;;
45618;SDS011;31343;47.520;19.144;2022-12-18T04:14:01;40.22;;;16.95;;
45618;SDS011;31343;47.520;19.144;2022-12-18T04:16:27;39.17;;;18.60;;
45618;SDS011;31343;47.520;19.144;2022-12-18T04:18:53;43.05;;;18.70;;
45618;SDS011;31343;47.520;19.144;2022-12-18T04:21:19;43.28;;;17.58;;
45618;SDS011;31343;47.520;19.144;2022-12-18T04:23:45;42.78;;;17.45;;
45618;SDS011;31343;47.520;19.144;2022-12-18T04:26:11;49.67;;;17.98;;
45618;SDS011;31343;47.520;19.144;2022-12-18T04:28:37;44.03;;;17.20;;
45618;SDS011;31343;47.520;19.144;2022-12-18T04:31:02;34.38;;;17.05;;
45618;SDS011;31343;47.520;19.144;2022-12-18T04:33:28;37.17;;;18.45;;
45618;SDS011;31343;47.520;19.144;2022-12-18T04:35:54;35.80;;;17.55;;
45618;SDS011;31343;47.520;19.144;2022-12-18T04:38:20;36.00;;;15.80;;
45618;SDS011;31343;47.520;19.144;2022-12-18T04:40:46;40.95;;;16.42;;
45618;SDS011;31343;47.520;19.144;2022-12-18T04:43:12;41.13;;;18.10;;
45618;SDS011;31343;47.520;19.144;2022-12-18T04:45:38;34.03;;;16.15;;
45618;SDS011;31343;47.520;19.144;2022-12-18T04:48:03;40.83;;;17.75;;
45618;SDS011;31343;47.520;19.144;2022-12-18T04:50:30;36.72;;;17.63;;
45618;SDS011;31343;47.520;19.144;2022-12-18T04:52:56;43.72;;;16.13;;
45618;SDS011;31343;47.520;19.144;2022-12-18T04:55:22;35.13;;;16.42;;
45618;SDS011;31343;47.520;19.144;2022-12-18T04:57:48;38.58;;;17.60;;
45618;SDS011;31343;47.520;19.144;2022-12-18T05:00:13;36.00;;;17.25;;
45618;SDS011;31343;47.520;19.144;2022-12-18T05:02:39;42.72;;;19.17;;
45618;SDS011;31343;47.520;19.144;2022-12-18T05:05:05;39.13;;;17.00;;
45618;SDS011;31343;47.520;19.144;2022-12-18T05:07:31;36.30;;;16.20;;
45618;SDS011;31343;47.520;19.144;2022-12-18T05:09:57;37.53;;;16.85;;
45618;SDS011;31343;47.520;19.144;2022-12-18T05:12:22;34.88;;;16.75;;
45618;SDS011;31343;47.520;19.144;2022-12-18T05:14:48;40.67;;;16.95;;
45618;SDS011;31343;47.520;19.144;2022-12-18T05:17:13;34.38;;;16.42;;
45618;SDS011;31343;47.520;19.144;2022-12-18T05:19:39;37.50;;;15.57;;
45618;SDS011;31343;47.520;19.144;2022-12-18T05:22:05;35.35;;;15.13;;
45618;SDS011;31343;47.520;19.144;2022-12-18T05:24:32;37.13;;;16.73;;
45618;SDS011;31343;47.520;19.144;2022-12-18T05:26:57;36.33;;;16.50;;
45618;SDS011;31343;47.520;19.144;2022-12-18T05:29:23;32.60;;;14.93;;
45618;SDS011;31343;47.520;19.144;2022-12-18T05:31:49;35.88;;;17.10;;
45618;SDS011;31343;47.520;19.144;2022-12-18T05:34:14;38.60;;;16.60;;
45618;SDS011;31343;47.520;19.144;2022-12-18T05:36:40;32.10;;;15.52;;
45618;SDS011;31343;47.520;19.144;2022-12-18T05:39:06;33.38;;;17.65;;
45618;SDS011;31343;47.520;19.144;2022-12-18T05:41:32;38.58;;;16.80;;
45618;SDS011;31343;47.520;19.144;2022-12-18T05:43:58;40.92;;;17.80;;
45618;SDS011;31343;47.520;19.144;2022-12-18T05:46:24;37.22;;;17.05;;
45618;SDS011;31343;47.520;19.144;2022-12-18T05:48:50;44.65;;;18.23;;
45618;SDS011;31343;47.520;19.144;2022-12-18T05:51:18;37.03;;;17.58;;
45618;SDS011;31343;47.520;19.144;2022-12-18T05:53:46;36.45;;;17.13;;
45618;SDS011;31343;47.520;19.144;2022-12-18T05:56:13;40.53;;;19.35;;
45618;SDS011;31343;47.520;19.144;2022-12-18T05:58:43;41.15;;;17.98;;
45618;SDS011;31343;47.520;19.144;2022-12-18T06:01:13;41.13;;;18.55;;
45618;SDS011;31343;47.520;19.144;2022-12-18T06:03:41;46.35;;;20.45;;
45618;SDS011;31343;47.520;19.144;2022-12-18T06:06:14;48.55;;;21.10;;
45618;SDS011;31343;47.520;19.144;2022-12-18T06:08:41;51.40;;;22.13;;
45618;SDS011;31343;47.520;19.144;2022-12-18T06:11:07;53.78;;;21.70;;
45618;SDS011;31343;47.520;19.144;2022-12-18T06:13:33;51.40;;;22.38;;
45618;SDS011;31343;47.520;19.144;2022-12-18T06:16:01;45.40;;;20.60;;
45618;SDS011;31343;47.520;19.144;2022-12-18T06:18:28;45.10;;;19.00;;
45618;SDS011;31343;47.520;19.144;2022-12-18T06:20:58;36.90;;;19.15;;
45618;SDS011;31343;47.520;19.144;2022-12-18T06:23:24;35.65;;;16.90;;
45618;SDS011;31343;47.520;19.144;2022-12-18T06:25:50;37.50;;;18.75;;
45618;SDS011;31343;47.520;19.144;2022-12-18T06:28:16;46.50;;;18.63;;
45618;SDS011;31343;47.520;19.144;2022-12-18T06:30:45;37.03;;;15.95;;
45618;SDS011;31343;47.520;19.144;2022-12-18T06:33:12;39.50;;;17.90;;
45618;SDS011;31343;47.520;19.144;2022-12-18T06:35:37;41.53;;;17.38;;
45618;SDS011;31343;47.520;19.144;2022-12-18T06:38:03;40.20;;;18.88;;
45618;SDS011;31343;47.520;19.144;2022-12-18T06:40:29;37.80;;;18.95;;
45618;SDS011;31343;47.520;19.144;2022-12-18T06:42:54;45.78;;;19.88;;
45618;SDS011;31343;47.520;19.144;2022-12-18T06:45:20;39.83;;;18.58;;
45618;SDS011;31343;47.520;19.144;2022-12-18T06:47:46;38.42;;;16.55;;
45618;SDS011;31343;47.520;19.144;2022-12-18T06:50:12;43.35;;;19.80;;
45618;SDS011;31343;47.520;19.144;2022-12-18T06:52:38;48.95;;;19.65;;
45618;SDS011;31343;47.520;19.144;2022-12-18T06:55:06;40.92;;;19.95;;
45618;SDS011;31343;47.520;19.144;2022-12-18T06:57:33;36.22;;;16.83;;
45618;SDS011;31343;47.520;19.144;2022-12-18T06:59:58;46.53;;;18.88;;
45618;SDS011;31343;47.520;19.144;2022-12-18T07:02:24;40.22;;;17.25;;
45618;SDS011;31343;47.520;19.144;2022-12-18T07:04:50;39.05;;;17.27;;
45618;SDS011;31343;47.520;19.144;2022-12-18T07:07:15;46.72;;;21.33;;
45618;SDS011;31343;47.520;19.144;2022-12-18T07:09:41;41.28;;;18.92;;
45618;SDS011;31343;47.520;19.144;2022-12-18T07:12:07;39.38;;;19.30;;
45618;SDS011;31343;47.520;19.144;2022-12-18T07:14:33;45.78;;;19.40;;
45618;SDS011;31343;47.520;19.144;2022-12-18T07:16:59;43.15;;;20.75;;
45618;SDS011;31343;47.520;19.144;2022-12-18T07:19:24;47.85;;;21.25;;
45618;SDS011;31343;47.520;19.144;2022-12-18T07:21:50;44.15;;;18.63;;
45618;SDS011;31343;47.520;19.144;2022-12-18T07:24:16;37.97;;;19.98;;
45618;SDS011;31343;47.520;19.144;2022-12-18T07:26:42;43.05;;;20.48;;
45618;SDS011;31343;47.520;19.144;2022-12-18T07:29:10;42.90;;;20.10;;
45618;SDS011;31343;47.520;19.144;2022-12-18T07:31:36;34.97;;;17.88;;
45618;SDS011;31343;47.520;19.144;2022-12-18T07:34:01;36.67;;;17.50;;
45618;SDS011;31343;47.520;19.144;2022-12-18T07:36:27;37.47;;;16.25;;
45618;SDS011;31343;47.520;19.144;2022-12-18T07:38:53;40.63;;;18.33;;
45618;SDS011;31343;47.520;19.144;2022-12-18T07:41:19;40.83;;;17.10;;
45618;SDS011;31343;47.520;19.144;2022-12-18T07:43:45;39.55;;;17.27;;
45618;SDS011;31343;47.520;19.144;2022-12-18T07:46:12;43.75;;;19.17;;
45618;SDS011;31343;47.520;19.144;2022-12-18T07:48:39;37.67;;;18.30;;
45618;SDS011;31343;47.520;19.144;2022-12-18T07:51:06;39.75;;;17.73;;
45618;SDS011;31343;47.520;19.144;2022-12-18T07:53:33;35.78;;;18.00;;
45618;SDS011;31343;47.520;19.144;2022-12-18T07:56:01;39.08;;;18.45;;
45618;SDS011;31343;47.520;19.144;2022-12-18T07:58:29;34.45;;;17.38;;
45618;SDS011;31343;47.520;19.144;2022-12-18T08:01:02;47.03;;;19.20;;
45618;SDS011;31343;47.520;19.144;2022-12-18T08:03:32;43.92;;;18.05;;
45618;SDS011;31343;47.520;19.144;2022-12-18T08:05:58;36.88;;;16.17;;
45618;SDS011;31343;47.520;19.144;2022-12-18T08:08:25;40.28;;;18.25;;
45618;SDS011;31343;47.520;19.144;2022-12-18T08:10:50;39.75;;;18.67;;
45618;SDS011;31343;47.520;19.144;2022-12-18T08:13:16;40.70;;;17.38;;
45618;SDS011;31343;47.520;19.144;2022-12-18T08:15:42;41.45;;;19.50;;
45618;SDS011;31343;47.520;19.144;2022-12-18T08:18:07;44.83;;;20.50;;
45618;SDS011;31343;47.520;19.144;2022-12-18T08:20:33;38.45;;;17.73;;
45618;SDS011;31343;47.520;19.144;2022-12-18T08:22:59;37.70;;;17.20;;
45618;SDS011;31343;47.520;19.144;2022-12-18T08:25:24;37.38;;;17.80;;
45618;SDS011;31343;47.520;19.144;2022-12-18T08:27:50;41.35;;;21.52;;
45618;SDS011;31343;47.520;19.144;2022-12-18T08:30:15;39.97;;;18.98;;
45618;SDS011;31343;47.520;19.144;2022-12-18T08:32:41;32.95;;;17.75;;
45618;SDS011;31343;47.520;19.144;2022-12-18T08:35:07;45.50;;;18.90;;
45618;SDS011;31343;47.520;19.144;2022-12-18T08:37:33;39.00;;;19.00;;
45618;SDS011;31343;47.520;19.144;2022-12-18T08:39:59;37.58;;;18.92;;
45618;SDS011;31343;47.520;19.144;2022-12-18T08:42:25;38.08;;;18.30;;
45618;SDS011;31343;47.520;19.144;2022-12-18T08:45:09;39.95;;;16.38;;
45618;SDS011;31343;47.520;19.144;2022-12-18T08:47:35;39.65;;;17.00;;
45618;SDS011;31343;47.520;19.144;2022-12-18T08:50:01;41.10;;;18.35;;
45618;SDS011;31343;47.520;19.144;2022-12-18T08:52:26;36.97;;;16.80;;
45618;SDS011;31343;47.520;19.144;2022-12-18T08:54:53;32.30;;;17.38;;
45618;SDS011;31343;47.520;19.144;2022-12-18T08:57:19;36.65;;;17.50;;
45618;SDS011;31343;47.520;19.144;2022-12-18T08:59:44;39.80;;;18.48;;
45618;SDS011;31343;47.520;19.144;2022-12-18T09:02:11;39.33;;;17.70;;
45618;SDS011;31343;47.520;19.144;2022-12-18T09:04:36;43.15;;;18.63;;
45618;SDS011;31343;47.520;19.144;2022-12-18T09:07:02;37.60;;;16.20;;
45618;SDS011;31343;47.520;19.144;2022-12-18T09:09:28;44.38;;;18.35;;
45618;SDS011;31343;47.520;19.144;2022-12-18T09:11:53;40.50;;;18.10;;
45618;SDS011;31343;47.520;19.144;2022-12-18T09:14:19;42.05;;;18.85;;
45618;SDS011;31343;47.520;19.144;2022-12-18T09:16:45;36.28;;;17.25;;
45618;SDS011;31343;47.520;19.144;2022-12-18T09:19:10;37.38;;;17.40;;
45618;SDS011;31343;47.520;19.144;2022-12-18T09:21:36;39.72;;;19.20;;
45618;SDS011;31343;47.520;19.144;2022-12-18T09:24:03;37.58;;;17.85;;
45618;SDS011;31343;47.520;19.144;2022-12-18T09:26:30;30.92;;;15.98;;
45618;SDS011;31343;47.520;19.144;2022-12-18T09:28:55;38.03;;;16.73;;
45618;SDS011;31343;47.520;19.144;2022-12-18T09:31:22;37.05;;;17.85;;
45618;SDS011;31343;47.520;19.144;2022-12-18T09:33:48;42.30;;;17.42;;
45618;SDS011;31343;47.520;19.144;2022-12-18T09:36:15;34.42;;;16.00;;
45618;SDS011;31343;47.520;19.144;2022-12-18T09:38:42;37.75;;;18.08;;
45618;SDS011;31343;47.520;19.144;2022-12-18T09:46:43;31.08;;;15.18;;
45618;SDS011;31343;47.520;19.144;2022-12-18T09:49:18;35.60;;;15.95;;
45618;SDS011;31343;47.520;19.144;2022-12-18T09:54:22;36.88;;;16.70;;
45618;SDS011;31343;47.520;19.144;2022-12-18T09:57:00;30.48;;;14.93;;
45618;SDS011;31343;47.520;19.144;2022-12-18T09:59:28;32.72;;;15.23;;
45618;SDS011;31343;47.520;19.144;2022-12-18T10:01:58;30.90;;;14.65;;
45618;SDS011;31343;47.520;19.144;2022-12-18T10:04:24;33.45;;;16.17;;
45618;SDS011;31343;47.520;19.144;2022-12-18T10:07:01;32.42;;;16.17;;
45618;SDS011;31343;47.520;19.144;2022-12-18T10:23:22;34.45;;;16.58;;
45618;SDS011;31343;47.520;19.144;2022-12-18T10:26:05;36.85;;;15.40;;
45618;SDS011;31343;47.520;19.144;2022-12-18T10:28:34;37.28;;;15.00;;
45618;SDS011;31343;47.520;19.144;2022-12-18T10:31:04;30.70;;;15.50;;
45618;SDS011;31343;47.520;19.144;2022-12-18T10:33:43;33.83;;;16.45;;
45618;SDS011;31343;47.520;19.144;2022-12-18T10:36:09;29.98;;;14.90;;
45618;SDS011;31343;47.520;19.144;2022-12-18T10:38:35;32.22;;;15.18;;
45618;SDS011;31343;47.520;19.144;2022-12-18T10:41:02;34.20;;;15.20;;
45618;SDS011;31343;47.520;19.144;2022-12-18T10:43:33;35.95;;;14.13;;
45618;SDS011;31343;47.520;19.144;2022-12-18T10:51:04;38.03;;;18.80;;
45618;SDS011;31343;47.520;19.144;2022-12-18T10:53:32;33.60;;;16.48;;
45618;SDS011;31343;47.520;19.144;2022-12-18T10:55:59;34.95;;;16.38;;
45618;SDS011;31343;47.520;19.144;2022-12-18T10:58:28;32.30;;;14.60;;
45618;SDS011;31343;47.520;19.144;2022-12-18T11:01:06;31.73;;;15.60;;
45618;SDS011;31343;47.520;19.144;2022-12-18T11:03:44;33.50;;;15.85;;
45618;SDS011;31343;47.520;19.144;2022-12-18T11:06:25;36.67;;;15.77;;
45618;SDS011;31343;47.520;19.144;2022-12-18T11:09:01;28.67;;;14.05;;
45618;SDS011;31343;47.520;19.144;2022-12-18T11:11:29;29.55;;;13.98;;
45618;SDS011;31343;47.520;19.144;2022-12-18T11:16:28;33.88;;;14.05;;
45618;SDS011;31343;47.520;19.144;2022-12-18T11:19:17;29.90;;;13.88;;
45618;SDS011;31343;47.520;19.144;2022-12-18T11:21:56;30.27;;;13.10;;
45618;SDS011;31343;47.520;19.144;2022-12-18T11:27:00;33.10;;;13.65;;
45618;SDS011;31343;47.520;19.144;2022-12-18T11:32:20;25.75;;;12.73;;
45618;SDS011;31343;47.520;19.144;2022-12-18T11:38:18;24.13;;;12.30;;
45618;SDS011;31343;47.520;19.144;2022-12-18T11:41:00;26.58;;;12.32;;
45618;SDS011;31343;47.520;19.144;2022-12-18T11:43:47;29.83;;;13.73;;
45618;SDS011;31343;47.520;19.144;2022-12-18T11:46:36;32.42;;;15.15;;
45618;SDS011;31343;47.520;19.144;2022-12-18T11:49:32;27.52;;;13.27;;
45618;SDS011;31343;47.520;19.144;2022-12-18T11:52:04;28.63;;;14.50;;
45618;SDS011;31343;47.520;19.144;2022-12-18T11:54:40;30.67;;;16.58;;
45618;SDS011;31343;47.520;19.144;2022-12-18T12:00:24;29.05;;;14.63;;
45618;SDS011;31343;47.520;19.144;2022-12-18T12:05:38;23.63;;;12.88;;
45618;SDS011;31343;47.520;19.144;2022-12-18T12:08:12;26.95;;;13.27;;
45618;SDS011;31343;47.520;19.144;2022-12-18T12:11:15;31.60;;;14.07;;
45618;SDS011;31343;47.520;19.144;2022-12-18T12:14:01;27.00;;;13.35;;
45618;SDS011;31343;47.520;19.144;2022-12-18T12:16:57;25.58;;;12.15;;
45618;SDS011;31343;47.520;19.144;2022-12-18T12:19:52;27.33;;;13.77;;
45618;SDS011;31343;47.520;19.144;2022-12-18T12:33:40;25.52;;;13.40;;
45618;SDS011;31343;47.520;19.144;2022-12-18T12:38:52;26.40;;;12.48;;
45618;SDS011;31343;47.520;19.144;2022-12-18T12:41:25;26.25;;;13.00;;
45618;SDS011;31343;47.520;19.144;2022-12-18T12:44:19;24.83;;;12.85;;
45618;SDS011;31343;47.520;19.144;2022-12-18T12:46:55;17.95;;;10.43;;
45618;SDS011;31343;47.520;19.144;2022-12-18T12:49:26;20.08;;;10.30;;
45618;SDS011;31343;47.520;19.144;2022-12-18T12:52:00;19.08;;;11.00;;
45618;SDS011;31343;47.520;19.144;2022-12-18T12:54:49;23.30;;;11.27;;
45618;SDS011;31343;47.520;19.144;2022-12-18T12:57:23;24.70;;;13.65;;
45618;SDS011;31343;47.520;19.144;2022-12-18T13:00:04;23.42;;;12.55;;
45618;SDS011;31343;47.520;19.144;2022-12-18T13:05:16;23.05;;;12.32;;
45618;SDS011;31343;47.520;19.144;2022-12-18T13:07:47;25.75;;;12.23;;
45618;SDS011;31343;47.520;19.144;2022-12-18T13:13:04;28.05;;;12.40;;
45618;SDS011;31343;47.520;19.144;2022-12-18T13:15:31;27.80;;;14.00;;
45618;SDS011;31343;47.520;19.144;2022-12-18T13:20:45;26.35;;;14.50;;
45618;SDS011;31343;47.520;19.144;2022-12-18T13:25:48;29.58;;;15.25;;
45618;SDS011;31343;47.520;19.144;2022-12-18T13:28:22;25.45;;;13.02;;
45618;SDS011;31343;47.520;19.144;2022-12-18T13:31:09;25.13;;;12.50;;
45618;SDS011;31343;47.520;19.144;2022-12-18T13:41:35;20.92;;;9.40;;
45618;SDS011;31343;47.520;19.144;2022-12-18T13:47:05;25.40;;;12.30;;
45618;SDS011;31343;47.520;19.144;2022-12-18T13:49:56;25.90;;;12.90;;
45618;SDS011;31343;47.520;19.144;2022-12-18T13:52:26;27.85;;;13.95;;
45618;SDS011;31343;47.520;19.144;2022-12-18T13:54:58;27.80;;;13.40;;
45618;SDS011;31343;47.520;19.144;2022-12-18T13:57:33;24.20;;;12.07;;
45618;SDS011;31343;47.520;19.144;2022-12-18T14:02:56;26.30;;;12.40;;
45618;SDS011;31343;47.520;19.144;2022-12-18T14:05:23;28.50;;;12.55;;
45618;SDS011;31343;47.520;19.144;2022-12-18T14:07:51;28.35;;;14.82;;
45618;SDS011;31343;47.520;19.144;2022-12-18T14:10:19;34.08;;;15.85;;
45618;SDS011;31343;47.520;19.144;2022-12-18T14:12:49;31.95;;;15.07;;
45618;SDS011;31343;47.520;19.144;2022-12-18T14:17:51;30.58;;;15.80;;
45618;SDS011;31343;47.520;19.144;2022-12-18T14:20:25;34.38;;;15.75;;
45618;SDS011;31343;47.520;19.144;2022-12-18T14:22:53;31.20;;;14.98;;
45618;SDS011;31343;47.520;19.144;2022-12-18T14:25:25;30.50;;;16.15;;
45618;SDS011;31343;47.520;19.144;2022-12-18T14:30:36;34.85;;;17.42;;
45618;SDS011;31343;47.520;19.144;2022-12-18T14:33:22;31.23;;;16.65;;
45618;SDS011;31343;47.520;19.144;2022-12-18T14:36:00;41.53;;;16.75;;
45618;SDS011;31343;47.520;19.144;2022-12-18T14:38:34;34.35;;;17.92;;
45618;SDS011;31343;47.520;19.144;2022-12-18T14:43:39;37.47;;;17.58;;
45618;SDS011;31343;47.520;19.144;2022-12-18T14:49:04;36.92;;;19.80;;
45618;SDS011;31343;47.520;19.144;2022-12-18T14:52:00;42.65;;;19.25;;
45618;SDS011;31343;47.520;19.144;2022-12-18T14:54:31;38.00;;;18.30;;
45618;SDS011;31343;47.520;19.144;2022-12-18T14:57:01;32.78;;;14.25;;
45618;SDS011;31343;47.520;19.144;2022-12-18T14:59:48;35.55;;;18.10;;
45618;SDS011;31343;47.520;19.144;2022-12-18T15:02:27;38.70;;;18.70;;
45618;SDS011;31343;47.520;19.144;2022-12-18T15:05:14;39.53;;;18.05;;
45618;SDS011;31343;47.520;19.144;2022-12-18T15:07:45;39.40;;;17.15;;
45618;SDS011;31343;47.520;19.144;2022-12-18T15:10:19;36.40;;;16.10;;
45618;SDS011;31343;47.520;19.144;2022-12-18T15:20:54;30.73;;;16.33;;
45618;SDS011;31343;47.520;19.144;2022-12-18T15:26:09;40.83;;;16.73;;
45618;SDS011;31343;47.520;19.144;2022-12-18T15:28:44;37.65;;;17.30;;
45618;SDS011;31343;47.520;19.144;2022-12-18T15:33:39;33.83;;;16.23;;
45618;SDS011;31343;47.520;19.144;2022-12-18T15:36:15;38.20;;;17.52;;
45618;SDS011;31343;47.520;19.144;2022-12-18T15:38:43;33.38;;;17.45;;
45618;SDS011;31343;47.520;19.144;2022-12-18T15:41:15;35.70;;;17.00;;
45618;SDS011;31343;47.520;19.144;2022-12-18T15:43:45;37.88;;;17.48;;
45618;SDS011;31343;47.520;19.144;2022-12-18T15:46:14;35.17;;;18.10;;
45618;SDS011;31343;47.520;19.144;2022-12-18T15:48:42;43.05;;;19.48;;
45618;SDS011;31343;47.520;19.144;2022-12-18T15:51:28;40.35;;;18.90;;
45618;SDS011;31343;47.520;19.144;2022-12-18T15:53:58;39.90;;;19.10;;
45618;SDS011;31343;47.520;19.144;2022-12-18T15:56:27;47.83;;;20.60;;
45618;SDS011;31343;47.520;19.144;2022-12-18T15:59:12;37.60;;;19.80;;
45618;SDS011;31343;47.520;19.144;2022-12-18T16:01:40;41.67;;;20.75;;
45618;SDS011;31343;47.520;19.144;2022-12-18T16:04:09;35.55;;;18.45;;
45618;SDS011;31343;47.520;19.144;2022-12-18T16:06:37;47.83;;;20.65;;
45618;SDS011;31343;47.520;19.144;2022-12-18T16:09:03;37.17;;;19.20;;
45618;SDS011;31343;47.520;19.144;2022-12-18T16:11:29;38.90;;;18.25;;
45618;SDS011;31343;47.520;19.144;2022-12-18T16:14:24;38.28;;;20.08;;
45618;SDS011;31343;47.520;19.144;2022-12-18T16:16:54;37.28;;;18.70;;
45618;SDS011;31343;47.520;19.144;2022-12-18T16:19:22;39.80;;;20.38;;
45618;SDS011;31343;47.520;19.144;2022-12-18T16:21:48;47.88;;;20.88;;
45618;SDS011;31343;47.520;19.144;2022-12-18T16:24:19;39.03;;;20.20;;
45618;SDS011;31343;47.520;19.144;2022-12-18T16:26:47;37.67;;;18.15;;
45618;SDS011;31343;47.520;19.144;2022-12-18T16:29:13;42.88;;;19.95;;
45618;SDS011;31343;47.520;19.144;2022-12-18T16:31:39;51.08;;;20.55;;
45618;SDS011;31343;47.520;19.144;2022-12-18T16:34:25;38.53;;;21.58;;
45618;SDS011;31343;47.520;19.144;2022-12-18T16:36:56;41.53;;;20.42;;
45618;SDS011;31343;47.520;19.144;2022-12-18T16:39:23;44.08;;;21.92;;
45618;SDS011;31343;47.520;19.144;2022-12-18T16:41:50;48.30;;;22.50;;